sensor_id;sensor_type;location;lat;lon;timestamp;pressure;altitude;pressure_sealevel;temperature;humidity
18022;BME280;9136;48.822;7.966;2023-07-13T00:01:36;100241.44;;;18.10;100.00
18022;BME280;9136;48.822;7.966;2023-07-13T00:04:04;100250.00;;;18.00;100.00
18022;BME280;9136;48.822;7.966;2023-07-13T00:06:34;100239.94;;;17.91;100.00
18022;BME280;9136;48.822;7.966;2023-07-13T00:09:21;100241.34;;;17.83;100.00
18022;BME280;9136;48.822;7.966;2023-07-13T00:12:26;100233.09;;;17.73;100.00
18022;BME280;9136;48.822;7.966;2023-07-13T00:15:17;100244.22;;;17.80;100.00
18022;BME280;9136;48.822;7.966;2023-07-13T00:18:07;100215.16;;;17.62;100.00
18022;BME280;9136;48.822;7.966;2023-07-13T00:20:54;100229.28;;;17.63;100.00
18022;BME280;9136;48.822;7.966;2023-07-13T00:23:51;100229.94;;;17.52;100.00
18022;BME280;9136;48.822;7.966;2023-07-13T00:26:37;100233.75;;;17.48;100.00
18022;BME280;9136;48.822;7.966;2023-07-13T00:29:23;100234.69;;;17.47;100.00
18022;BME280;9136;48.822;7.966;2023-07-13T00:32:09;100224.13;;;17.45;100.00
18022;BME280;9136;48.822;7.966;2023-07-13T00:34:56;100251.38;;;17.49;100.00
18022;BME280;9136;48.822;7.966;2023-07-13T00:37:45;100232.22;;;17.44;100.00
18022;BME280;9136;48.822;7.966;2023-07-13T00:40:33;100236.47;;;17.46;100.00
18022;BME280;9136;48.822;7.966;2023-07-13T00:43:22;100242.84;;;17.44;100.00
18022;BME280;9136;48.822;7.966;2023-07-13T00:46:19;100238.66;;;17.40;100.00
18022;BME280;9136;48.822;7.966;2023-07-13T00:49:08;100236.28;;;17.35;100.00
18022;BME280;9136;48.822;7.966;2023-07-13T00:51:58;100222.59;;;17.27;100.00
18022;BME280;9136;48.822;7.966;2023-07-13T00:54:46;100240.72;;;17.35;100.00
18022;BME280;9136;48.822;7.966;2023-07-13T00:57:35;100242.63;;;17.33;100.00
18022;BME280;9136;48.822;7.966;2023-07-13T01:00:22;100242.72;;;17.31;100.00
18022;BME280;9136;48.822;7.966;2023-07-13T01:03:13;100241.88;;;17.31;100.00
18022;BME280;9136;48.822;7.966;2023-07-13T01:06:00;100237.13;;;17.36;100.00
18022;BME280;9136;48.822;7.966;2023-07-13T01:08:47;100235.50;;;17.33;100.00
18022;BME280;9136;48.822;7.966;2023-07-13T01:11:33;100244.88;;;17.25;100.00
18022;BME280;9136;48.822;7.966;2023-07-13T01:14:21;100239.88;;;17.20;100.00
18022;BME280;9136;48.822;7.966;2023-07-13T01:17:09;100227.81;;;17.14;100.00
18022;BME280;9136;48.822;7.966;2023-07-13T01:19:56;100241.28;;;17.11;100.00
18022;BME280;9136;48.822;7.966;2023-07-13T01:22:44;100236.94;;;16.95;100.00
18022;BME280;9136;48.822;7.966;2023-07-13T01:25:30;100237.38;;;16.87;100.00
18022;BME280;9136;48.822;7.966;2023-07-13T01:28:16;100248.28;;;16.82;100.00
18022;BME280;9136;48.822;7.966;2023-07-13T01:31:03;100227.06;;;16.67;100.00
18022;BME280;9136;48.822;7.966;2023-07-13T01:33:49;100233.31;;;16.66;100.00
18022;BME280;9136;48.822;7.966;2023-07-13T01:36:36;100237.19;;;16.60;100.00
18022;BME280;9136;48.822;7.966;2023-07-13T01:39:25;100245.13;;;16.60;100.00
18022;BME280;9136;48.822;7.966;2023-07-13T01:42:12;100225.34;;;16.50;100.00
18022;BME280;9136;48.822;7.966;2023-07-13T01:45:00;100251.97;;;16.64;100.00
18022;BME280;9136;48.822;7.966;2023-07-13T01:47:46;100247.28;;;16.53;100.00
18022;BME280;9136;48.822;7.966;2023-07-13T01:50:32;100249.56;;;16.59;100.00
18022;BME280;9136;48.822;7.966;2023-07-13T01:53:20;100236.28;;;16.59;100.00
18022;BME280;9136;48.822;7.966;2023-07-13T01:56:09;100255.22;;;16.69;100.00
18022;BME280;9136;48.822;7.966;2023-07-13T01:58:55;100254.97;;;16.74;100.00
18022;BME280;9136;48.822;7.966;2023-07-13T02:01:41;100225.53;;;16.63;100.00
18022;BME280;9136;48.822;7.966;2023-07-13T02:04:27;100238.13;;;16.43;100.00
18022;BME280;9136;48.822;7.966;2023-07-13T02:06:56;100237.44;;;16.24;100.00
18022;BME280;9136;48.822;7.966;2023-07-13T02:09:24;100234.94;;;16.21;100.00
18022;BME280;9136;48.822;7.966;2023-07-13T02:11:53;100247.88;;;16.27;100.00
18022;BME280;9136;48.822;7.966;2023-07-13T02:14:21;100258.13;;;16.17;100.00
18022;BME280;9136;48.822;7.966;2023-07-13T02:16:49;100225.81;;;15.95;100.00
18022;BME280;9136;48.822;7.966;2023-07-13T02:19:16;100243.00;;;16.03;100.00
18022;BME280;9136;48.822;7.966;2023-07-13T02:21:44;100238.03;;;15.97;100.00
18022;BME280;9136;48.822;7.966;2023-07-13T02:24:11;100232.47;;;15.86;100.00
18022;BME280;9136;48.822;7.966;2023-07-13T02:26:44;100234.16;;;15.87;100.00
18022;BME280;9136;48.822;7.966;2023-07-13T02:29:13;100266.41;;;15.95;100.00
18022;BME280;9136;48.822;7.966;2023-07-13T02:31:41;100241.66;;;15.79;100.00
18022;BME280;9136;48.822;7.966;2023-07-13T02:34:09;100255.53;;;15.84;100.00
18022;BME280;9136;48.822;7.966;2023-07-13T02:36:37;100242.06;;;15.71;100.00
18022;BME280;9136;48.822;7.966;2023-07-13T02:39:05;59559.31;;;-143.99;100.00
18022;BME280;9136;48.822;7.966;2023-07-13T02:41:33;59559.31;;;-143.99;100.00
18022;BME280;9136;48.822;7.966;2023-07-13T02:44:02;100246.53;;;15.71;100.00
18022;BME280;9136;48.822;7.966;2023-07-13T02:46:34;100224.16;;;15.59;100.00
18022;BME280;9136;48.822;7.966;2023-07-13T02:49:02;59559.31;;;-143.99;100.00
18022;BME280;9136;48.822;7.966;2023-07-13T02:51:30;59559.31;;;-143.99;100.00
18022;BME280;9136;48.822;7.966;2023-07-13T02:54:02;59559.31;;;-143.99;100.00
18022;BME280;9136;48.822;7.966;2023-07-13T02:56:31;59559.31;;;-143.99;100.00
18022;BME280;9136;48.822;7.966;2023-07-13T02:58:59;59559.31;;;-143.99;100.00
18022;BME280;9136;48.822;7.966;2023-07-13T03:01:27;59559.31;;;-143.99;100.00
18022;BME280;9136;48.822;7.966;2023-07-13T03:03:56;59559.31;;;-143.99;100.00
18022;BME280;9136;48.822;7.966;2023-07-13T03:06:24;59559.31;;;-143.99;100.00
18022;BME280;9136;48.822;7.966;2023-07-13T03:08:51;59559.31;;;-143.99;100.00
18022;BME280;9136;48.822;7.966;2023-07-13T03:11:19;59559.31;;;-143.99;100.00
18022;BME280;9136;48.822;7.966;2023-07-13T03:13:47;59559.31;;;-143.99;100.00
18022;BME280;9136;48.822;7.966;2023-07-13T03:16:15;59559.31;;;-143.99;100.00
18022;BME280;9136;48.822;7.966;2023-07-13T03:18:44;59559.31;;;-143.99;100.00
18022;BME280;9136;48.822;7.966;2023-07-13T03:21:13;59559.31;;;-143.99;100.00
18022;BME280;9136;48.822;7.966;2023-07-13T03:23:41;59559.31;;;-143.99;100.00
18022;BME280;9136;48.822;7.966;2023-07-13T03:26:12;59559.31;;;-143.99;100.00
18022;BME280;9136;48.822;7.966;2023-07-13T03:28:41;59559.31;;;-143.99;100.00
18022;BME280;9136;48.822;7.966;2023-07-13T03:31:11;59559.31;;;-143.99;100.00
18022;BME280;9136;48.822;7.966;2023-07-13T03:33:43;59559.31;;;-143.99;100.00
18022;BME280;9136;48.822;7.966;2023-07-13T03:36:15;59559.31;;;-143.99;100.00
18022;BME280;9136;48.822;7.966;2023-07-13T03:38:45;59559.31;;;-143.99;100.00
18022;BME280;9136;48.822;7.966;2023-07-13T03:41:14;59559.31;;;-143.99;100.00
18022;BME280;9136;48.822;7.966;2023-07-13T03:43:42;59559.31;;;-143.99;100.00
18022;BME280;9136;48.822;7.966;2023-07-13T03:46:13;59559.31;;;-143.99;100.00
18022;BME280;9136;48.822;7.966;2023-07-13T03:48:43;59559.31;;;-143.99;100.00
18022;BME280;9136;48.822;7.966;2023-07-13T03:51:14;59559.31;;;-143.99;100.00
18022;BME280;9136;48.822;7.966;2023-07-13T03:53:46;59559.31;;;-143.99;100.00
18022;BME280;9136;48.822;7.966;2023-07-13T03:56:15;59559.31;;;-143.99;100.00
18022;BME280;9136;48.822;7.966;2023-07-13T03:58:44;59559.31;;;-143.99;100.00
18022;BME280;9136;48.822;7.966;2023-07-13T04:01:14;59559.31;;;-143.99;100.00
18022;BME280;9136;48.822;7.966;2023-07-13T04:03:45;59559.31;;;-143.99;100.00
18022;BME280;9136;48.822;7.966;2023-07-13T04:06:16;59559.31;;;-143.99;100.00
18022;BME280;9136;48.822;7.966;2023-07-13T04:08:51;59559.31;;;-143.99;100.00
18022;BME280;9136;48.822;7.966;2023-07-13T04:11:21;59559.31;;;-143.99;100.00
18022;BME280;9136;48.822;7.966;2023-07-13T04:13:50;59559.31;;;-143.99;100.00
18022;BME280;9136;48.822;7.966;2023-07-13T04:16:19;59559.31;;;-143.99;100.00
18022;BME280;9136;48.822;7.966;2023-07-13T04:18:50;59559.31;;;-143.99;100.00
18022;BME280;9136;48.822;7.966;2023-07-13T04:21:22;59559.31;;;-143.99;100.00
18022;BME280;9136;48.822;7.966;2023-07-13T04:23:53;59559.31;;;-143.99;100.00
18022;BME280;9136;48.822;7.966;2023-07-13T04:26:20;59559.31;;;-143.99;100.00
18022;BME280;9136;48.822;7.966;2023-07-13T04:28:57;59559.31;;;-143.99;100.00
18022;BME280;9136;48.822;7.966;2023-07-13T04:31:25;59559.31;;;-143.99;100.00
18022;BME280;9136;48.822;7.966;2023-07-13T04:33:54;59559.31;;;-143.99;100.00
18022;BME280;9136;48.822;7.966;2023-07-13T04:36:24;59559.31;;;-143.99;100.00
18022;BME280;9136;48.822;7.966;2023-07-13T04:38:56;59559.31;;;-143.99;100.00
18022;BME280;9136;48.822;7.966;2023-07-13T04:41:24;59559.31;;;-143.99;100.00
18022;BME280;9136;48.822;7.966;2023-07-13T04:43:52;59559.31;;;-143.99;100.00
18022;BME280;9136;48.822;7.966;2023-07-13T04:46:21;59559.31;;;-143.99;100.00
18022;BME280;9136;48.822;7.966;2023-07-13T04:48:56;59559.31;;;-143.99;100.00
18022;BME280;9136;48.822;7.966;2023-07-13T04:51:26;59559.31;;;-143.99;100.00
18022;BME280;9136;48.822;7.966;2023-07-13T04:53:58;59559.31;;;-143.99;100.00
18022;BME280;9136;48.822;7.966;2023-07-13T04:56:26;59559.31;;;-143.99;100.00
18022;BME280;9136;48.822;7.966;2023-07-13T04:58:54;59559.31;;;-143.99;100.00
18022;BME280;9136;48.822;7.966;2023-07-13T05:01:46;59559.31;;;-143.99;100.00
18022;BME280;9136;48.822;7.966;2023-07-13T05:04:14;59559.31;;;-143.99;100.00
18022;BME280;9136;48.822;7.966;2023-07-13T05:06:46;59559.31;;;-143.99;100.00
18022;BME280;9136;48.822;7.966;2023-07-13T05:09:14;59559.31;;;-143.99;100.00
18022;BME280;9136;48.822;7.966;2023-07-13T05:12:01;59559.31;;;-143.99;100.00
18022;BME280;9136;48.822;7.966;2023-07-13T05:14:47;59559.31;;;-143.99;100.00
18022;BME280;9136;48.822;7.966;2023-07-13T05:17:34;59559.31;;;-143.99;100.00
18022;BME280;9136;48.822;7.966;2023-07-13T05:20:22;59559.31;;;-143.99;100.00
18022;BME280;9136;48.822;7.966;2023-07-13T05:22:53;59559.31;;;-143.99;100.00
18022;BME280;9136;48.822;7.966;2023-07-13T05:25:39;59559.31;;;-143.99;100.00
18022;BME280;9136;48.822;7.966;2023-07-13T05:28:28;59559.31;;;-143.99;100.00
18022;BME280;9136;48.822;7.966;2023-07-13T05:31:35;59559.31;;;-143.99;100.00
18022;BME280;9136;48.822;7.966;2023-07-13T05:34:05;59559.31;;;-143.99;100.00
18022;BME280;9136;48.822;7.966;2023-07-13T05:36:53;59559.31;;;-143.99;100.00
18022;BME280;9136;48.822;7.966;2023-07-13T05:39:43;59559.31;;;-143.99;100.00
18022;BME280;9136;48.822;7.966;2023-07-13T05:42:29;59559.31;;;-143.99;100.00
18022;BME280;9136;48.822;7.966;2023-07-13T05:45:15;59559.31;;;-143.99;100.00
18022;BME280;9136;48.822;7.966;2023-07-13T05:48:01;59559.31;;;-143.99;100.00
18022;BME280;9136;48.822;7.966;2023-07-13T05:50:29;59559.31;;;-143.99;100.00
18022;BME280;9136;48.822;7.966;2023-07-13T05:53:18;59559.31;;;-143.99;100.00
18022;BME280;9136;48.822;7.966;2023-07-13T05:56:05;59559.31;;;-143.99;100.00
18022;BME280;9136;48.822;7.966;2023-07-13T05:58:53;59559.31;;;-143.99;100.00
18022;BME280;9136;48.822;7.966;2023-07-13T06:01:41;59559.31;;;-143.99;100.00
18022;BME280;9136;48.822;7.966;2023-07-13T06:04:28;59559.31;;;-143.99;100.00
18022;BME280;9136;48.822;7.966;2023-07-13T06:06:57;59559.31;;;-143.99;100.00
18022;BME280;9136;48.822;7.966;2023-07-13T06:09:43;59559.31;;;-143.99;100.00
18022;BME280;9136;48.822;7.966;2023-07-13T06:12:30;59559.31;;;-143.99;100.00
18022;BME280;9136;48.822;7.966;2023-07-13T06:15:16;59559.31;;;-143.99;100.00
18022;BME280;9136;48.822;7.966;2023-07-13T06:18:03;59559.31;;;-143.99;100.00
18022;BME280;9136;48.822;7.966;2023-07-13T06:20:50;59559.31;;;-143.99;100.00
18022;BME280;9136;48.822;7.966;2023-07-13T06:23:36;59559.31;;;-143.99;100.00
18022;BME280;9136;48.822;7.966;2023-07-13T06:26:22;59559.31;;;-143.99;100.00
18022;BME280;9136;48.822;7.966;2023-07-13T06:29:10;59559.31;;;-143.99;100.00
18022;BME280;9136;48.822;7.966;2023-07-13T06:31:56;59559.31;;;-143.99;100.00
18022;BME280;9136;48.822;7.966;2023-07-13T06:34:42;59559.31;;;-143.99;100.00
18022;BME280;9136;48.822;7.966;2023-07-13T06:37:28;59559.31;;;-143.99;100.00
18022;BME280;9136;48.822;7.966;2023-07-13T06:40:16;59559.31;;;-143.99;100.00
18022;BME280;9136;48.822;7.966;2023-07-13T06:43:04;59559.31;;;-143.99;100.00
18022;BME280;9136;48.822;7.966;2023-07-13T06:45:54;59559.31;;;-143.99;100.00
18022;BME280;9136;48.822;7.966;2023-07-13T06:48:41;100424.31;;;18.62;100.00
18022;BME280;9136;48.822;7.966;2023-07-13T06:51:27;100424.81;;;18.68;100.00
18022;BME280;9136;48.822;7.966;2023-07-13T06:54:15;100404.50;;;18.67;100.00
18022;BME280;9136;48.822;7.966;2023-07-13T06:57:02;100407.69;;;18.86;100.00
18022;BME280;9136;48.822;7.966;2023-07-13T06:59:48;100406.13;;;18.97;100.00
18022;BME280;9136;48.822;7.966;2023-07-13T07:02:35;100404.19;;;19.13;100.00
18022;BME280;9136;48.822;7.966;2023-07-13T07:05:03;100414.03;;;19.25;100.00
18022;BME280;9136;48.822;7.966;2023-07-13T07:07:31;100413.13;;;19.39;100.00
18022;BME280;9136;48.822;7.966;2023-07-13T07:10:17;100410.06;;;19.45;100.00
18022;BME280;9136;48.822;7.966;2023-07-13T07:13:04;100420.78;;;19.58;100.00
18022;BME280;9136;48.822;7.966;2023-07-13T07:15:50;100408.13;;;19.74;100.00
18022;BME280;9136;48.822;7.966;2023-07-13T07:18:40;100429.19;;;19.91;100.00
18022;BME280;9136;48.822;7.966;2023-07-13T07:21:26;100435.19;;;20.20;100.00
18022;BME280;9136;48.822;7.966;2023-07-13T07:24:12;100421.63;;;20.23;100.00
18022;BME280;9136;48.822;7.966;2023-07-13T07:26:58;100438.59;;;20.35;96.30
18022;BME280;9136;48.822;7.966;2023-07-13T07:29:44;100427.91;;;20.35;96.14
18022;BME280;9136;48.822;7.966;2023-07-13T07:32:31;100445.75;;;20.60;92.92
18022;BME280;9136;48.822;7.966;2023-07-13T07:35:21;100429.31;;;20.66;92.01
18022;BME280;9136;48.822;7.966;2023-07-13T07:38:07;100451.91;;;20.86;94.37
18022;BME280;9136;48.822;7.966;2023-07-13T07:40:54;100447.00;;;20.80;96.36
18022;BME280;9136;48.822;7.966;2023-07-13T07:43:42;100440.94;;;20.78;92.18
18022;BME280;9136;48.822;7.966;2023-07-13T07:46:29;100450.00;;;20.88;82.73
18022;BME280;9136;48.822;7.966;2023-07-13T07:49:15;100456.03;;;21.03;82.63
18022;BME280;9136;48.822;7.966;2023-07-13T07:52:03;100454.63;;;21.10;68.77
18022;BME280;9136;48.822;7.966;2023-07-13T07:54:49;100450.75;;;21.27;66.32
18022;BME280;9136;48.822;7.966;2023-07-13T07:57:36;100460.09;;;21.45;59.02
18022;BME280;9136;48.822;7.966;2023-07-13T08:00:23;100456.81;;;21.77;59.12
18022;BME280;9136;48.822;7.966;2023-07-13T08:03:09;100426.44;;;21.78;72.24
18022;BME280;9136;48.822;7.966;2023-07-13T08:05:55;100453.88;;;22.04;53.80
18022;BME280;9136;48.822;7.966;2023-07-13T08:08:43;100462.56;;;22.18;55.18
18022;BME280;9136;48.822;7.966;2023-07-13T08:11:10;100443.00;;;22.29;57.95
18022;BME280;9136;48.822;7.966;2023-07-13T08:13:38;100434.88;;;22.42;59.32
18022;BME280;9136;48.822;7.966;2023-07-13T08:16:06;100463.94;;;22.57;54.21
18022;BME280;9136;48.822;7.966;2023-07-13T08:18:35;100446.69;;;22.62;51.84
18022;BME280;9136;48.822;7.966;2023-07-13T08:21:04;100461.41;;;22.45;56.18
18022;BME280;9136;48.822;7.966;2023-07-13T08:23:32;100444.09;;;22.38;50.29
18022;BME280;9136;48.822;7.966;2023-07-13T08:26:02;100448.84;;;22.56;58.81
18022;BME280;9136;48.822;7.966;2023-07-13T08:28:30;100443.38;;;22.58;49.27
18022;BME280;9136;48.822;7.966;2023-07-13T08:31:00;100455.81;;;22.70;49.22
18022;BME280;9136;48.822;7.966;2023-07-13T08:33:28;100438.03;;;22.80;47.22
18022;BME280;9136;48.822;7.966;2023-07-13T08:35:57;100445.09;;;22.93;53.87
18022;BME280;9136;48.822;7.966;2023-07-13T08:38:25;100442.44;;;22.93;46.92
18022;BME280;9136;48.822;7.966;2023-07-13T08:40:55;100446.06;;;22.80;45.49
18022;BME280;9136;48.822;7.966;2023-07-13T08:43:46;100434.38;;;22.81;50.68
18022;BME280;9136;48.822;7.966;2023-07-13T08:46:37;100443.66;;;23.00;46.18
18022;BME280;9136;48.822;7.966;2023-07-13T08:49:11;100440.00;;;23.01;47.79
18022;BME280;9136;48.822;7.966;2023-07-13T08:52:03;100455.44;;;23.08;46.89
18022;BME280;9136;48.822;7.966;2023-07-13T08:54:51;100460.13;;;23.38;47.05
18022;BME280;9136;48.822;7.966;2023-07-13T08:57:41;100454.41;;;23.32;46.51
18022;BME280;9136;48.822;7.966;2023-07-13T09:00:14;100454.69;;;23.18;44.96
18022;BME280;9136;48.822;7.966;2023-07-13T09:03:00;100464.03;;;23.34;46.14
18022;BME280;9136;48.822;7.966;2023-07-13T09:05:52;100443.19;;;23.38;46.57
18022;BME280;9136;48.822;7.966;2023-07-13T09:08:48;100443.16;;;23.81;45.78
18022;BME280;9136;48.822;7.966;2023-07-13T09:11:46;100435.16;;;24.12;44.49
18022;BME280;9136;48.822;7.966;2023-07-13T09:14:42;100442.06;;;24.46;46.26
18022;BME280;9136;48.822;7.966;2023-07-13T09:17:17;100438.94;;;24.72;43.65
18022;BME280;9136;48.822;7.966;2023-07-13T09:20:10;100449.63;;;24.62;43.64
18022;BME280;9136;48.822;7.966;2023-07-13T09:23:05;100449.84;;;24.90;43.68
18022;BME280;9136;48.822;7.966;2023-07-13T09:25:55;100432.88;;;24.89;45.54
18022;BME280;9136;48.822;7.966;2023-07-13T09:28:47;100441.22;;;24.46;44.84
18022;BME280;9136;48.822;7.966;2023-07-13T09:31:38;100434.28;;;24.22;45.93
18022;BME280;9136;48.822;7.966;2023-07-13T09:34:28;100432.25;;;24.15;49.96
18022;BME280;9136;48.822;7.966;2023-07-13T09:37:15;100445.09;;;24.63;49.81
18022;BME280;9136;48.822;7.966;2023-07-13T09:40:02;100454.50;;;25.18;48.74
18022;BME280;9136;48.822;7.966;2023-07-13T09:42:54;100446.91;;;25.52;46.98
18022;BME280;9136;48.822;7.966;2023-07-13T09:45:45;100420.44;;;25.86;46.91
18022;BME280;9136;48.822;7.966;2023-07-13T09:48:35;100429.88;;;26.19;43.04
18022;BME280;9136;48.822;7.966;2023-07-13T09:51:23;100431.78;;;25.80;41.49
18022;BME280;9136;48.822;7.966;2023-07-13T09:54:18;100452.66;;;25.19;41.39
18022;BME280;9136;48.822;7.966;2023-07-13T09:57:13;100420.84;;;24.83;41.85
18022;BME280;9136;48.822;7.966;2023-07-13T10:00:02;100443.09;;;24.95;41.89
18022;BME280;9136;48.822;7.966;2023-07-13T10:03:02;100441.25;;;24.96;41.76
18022;BME280;9136;48.822;7.966;2023-07-13T10:05:53;100430.59;;;25.34;42.93
18022;BME280;9136;48.822;7.966;2023-07-13T10:08:41;100439.25;;;25.48;39.00
18022;BME280;9136;48.822;7.966;2023-07-13T10:11:30;100445.19;;;25.32;39.68
18022;BME280;9136;48.822;7.966;2023-07-13T10:14:21;100441.66;;;25.41;38.07
18022;BME280;9136;48.822;7.966;2023-07-13T10:17:12;100449.03;;;25.58;35.46
18022;BME280;9136;48.822;7.966;2023-07-13T10:20:01;100445.38;;;25.79;37.28
18022;BME280;9136;48.822;7.966;2023-07-13T10:22:53;100417.03;;;25.94;38.53
18022;BME280;9136;48.822;7.966;2023-07-13T10:25:43;100438.38;;;26.15;38.87
18022;BME280;9136;48.822;7.966;2023-07-13T10:28:35;100428.50;;;25.57;37.17
18022;BME280;9136;48.822;7.966;2023-07-13T10:31:07;100429.13;;;25.01;37.81
18022;BME280;9136;48.822;7.966;2023-07-13T10:33:40;100431.81;;;25.01;36.30
18022;BME280;9136;48.822;7.966;2023-07-13T10:36:14;100424.69;;;25.69;36.06
18022;BME280;9136;48.822;7.966;2023-07-13T10:39:04;100434.59;;;25.98;34.26
18022;BME280;9136;48.822;7.966;2023-07-13T10:41:57;100444.22;;;26.01;36.35
18022;BME280;9136;48.822;7.966;2023-07-13T10:44:50;100443.81;;;25.76;36.14
18022;BME280;9136;48.822;7.966;2023-07-13T10:47:37;100436.41;;;25.30;37.03
18022;BME280;9136;48.822;7.966;2023-07-13T10:50:25;100427.47;;;25.10;36.57
18022;BME280;9136;48.822;7.966;2023-07-13T10:53:20;100437.78;;;25.15;37.20
18022;BME280;9136;48.822;7.966;2023-07-13T10:56:22;100437.22;;;25.11;36.82
18022;BME280;9136;48.822;7.966;2023-07-13T10:59:29;100440.13;;;26.06;36.95
18022;BME280;9136;48.822;7.966;2023-07-13T11:02:39;100421.38;;;26.14;36.17
18022;BME280;9136;48.822;7.966;2023-07-13T11:05:29;100434.16;;;25.45;35.54
18022;BME280;9136;48.822;7.966;2023-07-13T11:08:33;100434.56;;;25.21;36.35
18022;BME280;9136;48.822;7.966;2023-07-13T11:11:39;100427.53;;;25.68;35.81
18022;BME280;9136;48.822;7.966;2023-07-13T11:14:30;100442.81;;;25.67;35.26
18022;BME280;9136;48.822;7.966;2023-07-13T11:17:34;100428.97;;;26.48;34.84
18022;BME280;9136;48.822;7.966;2023-07-13T11:20:33;100422.00;;;25.89;36.34
18022;BME280;9136;48.822;7.966;2023-07-13T11:23:30;100418.69;;;26.61;35.58
18022;BME280;9136;48.822;7.966;2023-07-13T11:26:41;100424.94;;;28.49;32.79
18022;BME280;9136;48.822;7.966;2023-07-13T11:29:37;100424.59;;;28.87;29.81
18022;BME280;9136;48.822;7.966;2023-07-13T11:33:48;100416.06;;;31.55;26.77
18022;BME280;9136;48.822;7.966;2023-07-13T11:35:45;100424.81;;;32.26;25.98
18022;BME280;9136;48.822;7.966;2023-07-13T11:38:37;100434.84;;;33.72;25.30
18022;BME280;9136;48.822;7.966;2023-07-13T11:41:26;100426.97;;;34.33;23.48
18022;BME280;9136;48.822;7.966;2023-07-13T11:44:19;100437.88;;;35.02;23.16
18022;BME280;9136;48.822;7.966;2023-07-13T11:47:14;100409.44;;;31.35;25.95
18022;BME280;9136;48.822;7.966;2023-07-13T11:50:04;100414.50;;;31.61;25.87
18022;BME280;9136;48.822;7.966;2023-07-13T11:52:54;100429.53;;;32.32;24.21
18022;BME280;9136;48.822;7.966;2023-07-13T11:55:41;100397.75;;;34.55;23.02
18022;BME280;9136;48.822;7.966;2023-07-13T11:58:30;100426.69;;;35.45;21.37
18022;BME280;9136;48.822;7.966;2023-07-13T12:01:19;100412.34;;;33.42;22.98
18022;BME280;9136;48.822;7.966;2023-07-13T12:04:11;100425.97;;;32.61;24.19
18022;BME280;9136;48.822;7.966;2023-07-13T12:07:11;100416.88;;;33.20;24.19
18022;BME280;9136;48.822;7.966;2023-07-13T12:10:01;100409.69;;;31.71;24.57
18022;BME280;9136;48.822;7.966;2023-07-13T12:12:52;100406.69;;;29.69;26.71
18022;BME280;9136;48.822;7.966;2023-07-13T12:15:43;100412.22;;;32.10;25.07
18022;BME280;9136;48.822;7.966;2023-07-13T12:18:31;100406.25;;;32.15;25.19
18022;BME280;9136;48.822;7.966;2023-07-13T12:21:27;100397.75;;;32.47;24.71
18022;BME280;9136;48.822;7.966;2023-07-13T12:24:16;100399.69;;;32.09;23.41
18022;BME280;9136;48.822;7.966;2023-07-13T12:26:44;100391.78;;;33.39;24.57
18022;BME280;9136;48.822;7.966;2023-07-13T12:29:19;100394.13;;;34.41;23.63
18022;BME280;9136;48.822;7.966;2023-07-13T12:31:49;100412.00;;;32.64;24.83
18022;BME280;9136;48.822;7.966;2023-07-13T12:34:20;100387.94;;;28.92;28.00
18022;BME280;9136;48.822;7.966;2023-07-13T12:36:54;100383.44;;;27.81;30.24
18022;BME280;9136;48.822;7.966;2023-07-13T12:39:45;100392.13;;;27.92;29.64
18022;BME280;9136;48.822;7.966;2023-07-13T12:42:32;100392.16;;;27.75;29.76
18022;BME280;9136;48.822;7.966;2023-07-13T12:45:24;100384.97;;;27.12;29.74
18022;BME280;9136;48.822;7.966;2023-07-13T12:48:14;100397.63;;;27.02;31.18
18022;BME280;9136;48.822;7.966;2023-07-13T12:51:01;100403.84;;;27.30;30.64
18022;BME280;9136;48.822;7.966;2023-07-13T12:53:57;100410.56;;;27.79;29.44
18022;BME280;9136;48.822;7.966;2023-07-13T12:56:45;100382.13;;;27.14;30.75
18022;BME280;9136;48.822;7.966;2023-07-13T12:59:34;100404.94;;;26.64;30.95
18022;BME280;9136;48.822;7.966;2023-07-13T13:02:28;100381.75;;;26.44;32.17
18022;BME280;9136;48.822;7.966;2023-07-13T13:05:15;100413.84;;;26.37;31.65
18022;BME280;9136;48.822;7.966;2023-07-13T13:08:01;100416.53;;;26.74;31.16
18022;BME280;9136;48.822;7.966;2023-07-13T13:10:51;100387.63;;;26.94;30.35
18022;BME280;9136;48.822;7.966;2023-07-13T13:13:37;100379.38;;;28.29;30.28
18022;BME280;9136;48.822;7.966;2023-07-13T13:16:30;100403.06;;;31.51;26.76
18022;BME280;9136;48.822;7.966;2023-07-13T13:19:18;100407.13;;;31.93;24.18
18022;BME280;9136;48.822;7.966;2023-07-13T13:22:07;100395.22;;;31.94;26.29
18022;BME280;9136;48.822;7.966;2023-07-13T13:24:54;100411.06;;;32.87;25.67
18022;BME280;9136;48.822;7.966;2023-07-13T13:27:42;100404.22;;;32.76;24.03
18022;BME280;9136;48.822;7.966;2023-07-13T13:30:28;100403.13;;;33.43;22.91
18022;BME280;9136;48.822;7.966;2023-07-13T13:33:18;100392.91;;;34.91;23.37
18022;BME280;9136;48.822;7.966;2023-07-13T13:36:13;100402.94;;;34.43;23.17
18022;BME280;9136;48.822;7.966;2023-07-13T13:39:00;100398.44;;;33.00;24.50
18022;BME280;9136;48.822;7.966;2023-07-13T13:41:54;100387.34;;;32.66;26.51
18022;BME280;9136;48.822;7.966;2023-07-13T13:44:44;100384.31;;;33.91;24.90
18022;BME280;9136;48.822;7.966;2023-07-13T13:47:32;100386.22;;;34.94;22.80
18022;BME280;9136;48.822;7.966;2023-07-13T13:50:21;100416.03;;;35.96;22.93
18022;BME280;9136;48.822;7.966;2023-07-13T13:53:10;100403.19;;;35.64;21.32
18022;BME280;9136;48.822;7.966;2023-07-13T13:55:59;100411.94;;;35.33;22.14
18022;BME280;9136;48.822;7.966;2023-07-13T13:58:47;100410.66;;;35.28;22.23
18022;BME280;9136;48.822;7.966;2023-07-13T14:01:37;100392.06;;;34.91;22.40
18022;BME280;9136;48.822;7.966;2023-07-13T14:04:23;100415.88;;;34.06;24.34
18022;BME280;9136;48.822;7.966;2023-07-13T14:07:11;100392.00;;;32.87;26.37
18022;BME280;9136;48.822;7.966;2023-07-13T14:09:58;100391.84;;;32.59;25.91
18022;BME280;9136;48.822;7.966;2023-07-13T14:12:46;100378.47;;;31.90;25.26
18022;BME280;9136;48.822;7.966;2023-07-13T14:15:33;100397.38;;;31.83;26.66